createdAt,value
2018-05-06T00:02:09.928Z,6.45
2018-05-06T00:04:37.332Z,7.45
2018-05-06T00:07:04.748Z,12.02
2018-05-06T00:09:32.157Z,6.50
2018-05-06T00:11:59.565Z,8.63
2018-05-06T00:14:26.972Z,9.57
2018-05-06T00:16:54.405Z,6.85
2018-05-06T00:19:21.804Z,9.45
2018-05-06T00:21:49.224Z,7.80
2018-05-06T00:24:16.635Z,14.18
2018-05-06T00:26:44.045Z,8.40
2018-05-06T00:29:11.468Z,15.10
2018-05-06T00:31:38.884Z,7.75
2018-05-06T00:34:06.300Z,19.08
2018-05-06T00:36:33.728Z,7.50
2018-05-06T00:39:01.141Z,9.57
2018-05-06T00:41:28.556Z,12.57
2018-05-06T00:43:56.013Z,9.63
2018-05-06T00:46:23.495Z,12.35
2018-05-06T00:48:50.828Z,10.00
2018-05-06T00:51:18.246Z,9.38
2018-05-06T00:53:45.651Z,9.63
2018-05-06T00:56:13.057Z,9.93
2018-05-06T00:58:40.469Z,9.55
2018-05-06T01:01:07.882Z,7.85
2018-05-06T01:03:35.296Z,7.90
2018-05-06T01:06:02.704Z,10.30
2018-05-06T01:08:30.127Z,7.93
2018-05-06T01:10:57.536Z,14.18
2018-05-06T01:13:24.956Z,7.30
2018-05-06T01:15:52.385Z,24.42
2018-05-06T01:18:19.809Z,10.40
2018-05-06T01:20:47.208Z,7.68
2018-05-06T01:23:14.632Z,17.60
2018-05-06T01:25:42.043Z,10.02
2018-05-06T01:28:09.457Z,11.95
2018-05-06T01:30:36.863Z,9.23
2018-05-06T01:33:04.280Z,7.50
2018-05-06T01:35:31.684Z,8.35
2018-05-06T01:37:59.132Z,5.07
2018-05-06T01:40:26.533Z,6.55
2018-05-06T01:42:53.945Z,8.32
2018-05-06T01:45:21.357Z,6.28
2018-05-06T01:47:48.769Z,5.43
2018-05-06T01:50:16.176Z,6.32
2018-05-06T01:52:43.596Z,10.82
2018-05-06T01:55:11.012Z,10.43
2018-05-06T01:57:38.429Z,6.07
2018-05-06T02:00:05.837Z,6.93
2018-05-06T02:02:33.253Z,5.68
2018-05-06T02:05:00.664Z,6.50
2018-05-06T02:07:28.069Z,4.60
2018-05-06T02:09:55.477Z,7.28
2018-05-06T02:12:22.922Z,8.70
2018-05-06T02:14:50.323Z,4.70
2018-05-06T02:17:17.724Z,12.32
2018-05-06T02:19:45.144Z,8.55
2018-05-06T02:22:12.547Z,3.87
2018-05-06T02:24:39.960Z,7.35
2018-05-06T02:27:07.368Z,4.60
2018-05-06T02:29:34.792Z,5.85
2018-05-06T02:32:02.205Z,6.03
2018-05-06T02:34:29.617Z,4.05
2018-05-06T02:36:57.025Z,4.85
2018-05-06T02:39:24.439Z,6.32
2018-05-06T02:41:51.848Z,3.67
2018-05-06T02:44:19.271Z,6.78
2018-05-06T02:46:46.667Z,9.95
2018-05-06T02:49:14.076Z,5.87
2018-05-06T02:51:41.484Z,6.70
2018-05-06T02:54:08.908Z,5.32
2018-05-06T02:56:36.312Z,6.12
2018-05-06T02:59:03.724Z,7.70
2018-05-06T03:01:31.133Z,6.80
2018-05-06T03:03:58.546Z,5.28
2018-05-06T03:06:25.952Z,11.50
2018-05-06T03:08:53.370Z,10.40
2018-05-06T03:11:20.775Z,5.90
2018-05-06T03:13:48.188Z,6.65
2018-05-06T03:16:15.691Z,18.48
2018-05-06T03:18:43.175Z,4.93
2018-05-06T03:21:10.507Z,6.80
2018-05-06T03:23:37.924Z,10.57
2018-05-06T03:26:05.328Z,5.62
2018-05-06T03:28:32.748Z,7.85
2018-05-06T03:31:00.147Z,7.28
2018-05-06T03:33:27.567Z,8.98
2018-05-06T03:35:54.977Z,4.00
2018-05-06T03:38:22.388Z,6.03
2018-05-06T03:40:49.799Z,6.78
2018-05-06T03:43:17.208Z,9.40
2018-05-06T03:45:44.649Z,4.10
2018-05-06T03:48:12.088Z,8.98
2018-05-06T03:50:39.489Z,10.32
2018-05-06T03:53:06.893Z,5.65
2018-05-06T03:55:34.336Z,8.07
2018-05-06T03:58:13.656Z,12.45
2018-05-06T04:00:42.656Z,6.82
2018-05-06T04:03:10.065Z,9.82
2018-05-06T04:05:37.484Z,6.00
2018-05-06T04:08:04.886Z,4.28
2018-05-06T04:10:33.125Z,6.10
2018-05-06T04:13:00.522Z,9.43
2018-05-06T04:15:27.945Z,5.20
2018-05-06T04:17:55.348Z,7.05
2018-05-06T04:20:22.764Z,13.45
2018-05-06T04:22:50.209Z,4.85
2018-05-06T04:25:17.616Z,4.15
2018-05-06T04:27:45.021Z,5.35
2018-05-06T04:30:12.437Z,7.12
2018-05-06T04:32:39.848Z,6.25
2018-05-06T04:35:07.272Z,11.98
2018-05-06T04:37:34.674Z,4.45
2018-05-06T04:40:02.088Z,8.13
2018-05-06T04:42:29.515Z,10.73
2018-05-06T04:44:56.924Z,6.15
2018-05-06T04:47:24.332Z,6.43
2018-05-06T04:49:51.740Z,5.50
2018-05-06T04:52:19.148Z,8.98
2018-05-06T04:54:46.582Z,3.65
2018-05-06T04:57:13.979Z,6.30
2018-05-06T04:59:41.391Z,5.62
2018-05-06T05:02:08.796Z,4.45
2018-05-06T05:04:36.208Z,6.22
2018-05-06T05:07:03.616Z,4.43
2018-05-06T05:09:31.063Z,3.28
2018-05-06T05:11:58.443Z,17.52
2018-05-06T05:14:25.859Z,6.53
2018-05-06T05:16:53.264Z,4.15
2018-05-06T05:19:20.691Z,11.85
2018-05-06T05:21:48.095Z,5.50
2018-05-06T05:24:15.521Z,4.37
2018-05-06T05:26:42.927Z,4.75
2018-05-06T05:29:10.324Z,2.75
2018-05-06T05:31:37.735Z,3.20
2018-05-06T05:34:05.142Z,7.25
2018-05-06T05:36:32.557Z,4.72
2018-05-06T05:38:59.962Z,7.57
2018-05-06T05:41:27.377Z,4.18
2018-05-06T05:43:54.785Z,7.10
2018-05-06T05:46:22.192Z,4.10
2018-05-06T05:48:49.595Z,4.97
2018-05-06T05:51:17.012Z,12.65
2018-05-06T05:53:44.417Z,20.90
2018-05-06T05:56:11.832Z,4.80
2018-05-06T05:58:39.236Z,4.68
2018-05-06T06:01:06.654Z,5.68
2018-05-06T06:03:34.063Z,6.78
2018-05-06T06:06:01.471Z,6.43
2018-05-06T06:08:28.880Z,4.87
2018-05-06T06:10:56.292Z,5.35
2018-05-06T06:13:23.688Z,4.53
2018-05-06T06:15:51.101Z,5.72
2018-05-06T06:18:18.511Z,12.37
2018-05-06T06:20:45.923Z,3.42
2018-05-06T06:23:13.320Z,5.40
2018-05-06T06:25:40.768Z,3.60
2018-05-06T06:28:08.201Z,5.25
2018-05-06T06:30:35.613Z,5.62
2018-05-06T06:33:03.086Z,8.13
2018-05-06T06:35:30.438Z,10.77
2018-05-06T06:37:57.848Z,5.35
2018-05-06T06:40:25.255Z,9.40
2018-05-06T06:42:52.668Z,3.55
2018-05-06T06:45:20.075Z,5.65
2018-05-06T06:47:47.484Z,8.48
2018-05-06T06:50:14.900Z,12.45
2018-05-06T06:52:42.308Z,5.25
2018-05-06T06:55:09.721Z,8.68
2018-05-06T06:57:37.199Z,7.65
2018-05-06T07:00:04.560Z,11.07
2018-05-06T07:02:31.966Z,7.43
2018-05-06T07:04:59.367Z,5.28
2018-05-06T07:07:26.785Z,6.43
2018-05-06T07:09:54.189Z,5.28
2018-05-06T07:12:21.601Z,6.60
2018-05-06T07:14:49.020Z,10.13
2018-05-06T07:17:16.441Z,8.65
2018-05-06T07:19:43.844Z,5.22
2018-05-06T07:22:11.273Z,9.13
2018-05-06T07:24:38.669Z,6.03
2018-05-06T07:27:06.101Z,12.43
2018-05-06T07:29:33.512Z,8.25
2018-05-06T07:32:00.920Z,7.30
2018-05-06T07:34:28.323Z,5.85
2018-05-06T07:36:55.745Z,6.75
2018-05-06T07:39:23.149Z,5.30
2018-05-06T07:41:50.555Z,8.82
2018-05-06T07:44:17.976Z,8.20
2018-05-06T07:46:45.375Z,6.78
2018-05-06T07:49:12.784Z,7.70
2018-05-06T07:51:40.200Z,13.30
2018-05-06T07:54:07.606Z,8.10
2018-05-06T07:56:35.024Z,8.18
2018-05-06T07:59:02.435Z,12.00
2018-05-06T08:01:29.861Z,16.10
2018-05-06T08:03:57.278Z,13.88
2018-05-06T08:06:24.692Z,18.42
2018-05-06T08:08:52.115Z,14.73
2018-05-06T08:11:19.540Z,22.95
2018-05-06T08:13:46.951Z,12.80
2018-05-06T08:16:14.406Z,13.85
2018-05-06T08:18:41.787Z,16.58
2018-05-06T08:21:09.208Z,14.18
2018-05-06T08:23:36.615Z,13.55
2018-05-06T08:26:04.051Z,15.60
2018-05-06T08:28:31.462Z,12.60
2018-05-06T08:30:58.884Z,16.42
2018-05-06T08:33:26.300Z,12.55
2018-05-06T08:35:53.725Z,19.83
2018-05-06T08:38:21.172Z,19.50
2018-05-06T08:40:48.584Z,15.68
2018-05-06T08:43:16.001Z,17.25
2018-05-06T08:45:43.494Z,18.17
2018-05-06T08:48:10.841Z,21.27
2018-05-06T08:50:38.256Z,19.37
2018-05-06T08:53:05.680Z,19.40
2018-05-06T08:55:33.096Z,17.45
2018-05-06T08:58:00.508Z,21.80
2018-05-06T09:00:27.928Z,25.45
2018-05-06T09:02:55.349Z,32.08
2018-05-06T09:05:22.769Z,23.35
2018-05-06T09:07:50.181Z,34.20
2018-05-06T09:10:17.596Z,42.62
2018-05-06T09:12:45.021Z,34.70
2018-05-06T09:15:12.433Z,39.45
2018-05-06T09:17:39.860Z,47.38
2018-05-06T09:20:07.277Z,24.40
2018-05-06T09:22:34.701Z,45.20
2018-05-06T09:25:02.120Z,39.70
2018-05-06T09:27:29.536Z,31.45
2018-05-06T09:29:56.952Z,26.45
2018-05-06T09:32:24.459Z,30.00
2018-05-06T09:34:51.792Z,27.35
2018-05-06T09:37:19.240Z,30.80
2018-05-06T09:39:46.655Z,39.67
2018-05-06T09:42:14.067Z,36.88
2018-05-06T09:44:41.484Z,47.22
2018-05-06T09:47:08.906Z,40.80
2018-05-06T09:49:36.317Z,40.17
2018-05-06T09:52:03.744Z,48.28
2018-05-06T09:54:31.156Z,41.25
2018-05-06T09:56:58.584Z,45.03
2018-05-06T09:59:26.133Z,36.63
2018-05-06T10:01:53.551Z,44.30
2018-05-06T10:04:20.968Z,45.97
2018-05-06T10:06:48.417Z,38.22
2018-05-06T10:09:15.832Z,53.03
2018-05-06T10:11:43.256Z,30.90
2018-05-06T10:14:10.706Z,42.97
2018-05-06T10:16:38.124Z,49.63
2018-05-06T10:19:05.545Z,43.05
2018-05-06T10:21:32.956Z,43.65
2018-05-06T10:24:00.380Z,43.72
2018-05-06T10:26:27.811Z,39.35
2018-05-06T10:28:55.307Z,47.03
2018-05-06T10:31:22.737Z,44.92
2018-05-06T10:33:50.173Z,46.75
2018-05-06T10:36:17.605Z,51.17
2018-05-06T10:38:45.025Z,60.80
2018-05-06T10:41:12.480Z,58.60
2018-05-06T10:43:39.903Z,37.80
2018-05-06T10:46:07.317Z,46.28
2018-05-06T10:48:34.773Z,43.33
2018-05-06T10:51:02.188Z,39.30
2018-05-06T10:53:29.619Z,37.75
2018-05-06T10:55:57.042Z,57.25
2018-05-06T10:58:24.464Z,52.67
2018-05-06T11:00:51.890Z,71.47
2018-05-06T11:03:19.327Z,61.20
2018-05-06T11:05:46.765Z,61.85
2018-05-06T11:08:14.240Z,65.00
2018-05-06T11:10:41.656Z,59.42
2018-05-06T11:13:09.149Z,46.05
2018-05-06T11:15:36.589Z,53.92
2018-05-06T11:18:04.018Z,67.03
2018-05-06T11:20:32.630Z,43.40
2018-05-06T11:23:00.064Z,41.67
2018-05-06T11:25:27.472Z,54.70
2018-05-06T11:27:54.901Z,46.15
2018-05-06T11:30:22.312Z,54.38
2018-05-06T11:32:49.736Z,53.17
2018-05-06T11:35:17.188Z,44.85
2018-05-06T11:37:44.620Z,50.75
2018-05-06T11:40:12.045Z,56.75
2018-05-06T11:42:39.480Z,41.75
2018-05-06T11:45:06.896Z,47.92
2018-05-06T11:47:34.317Z,40.80
2018-05-06T11:50:01.737Z,38.40
2018-05-06T11:52:29.144Z,52.88
2018-05-06T11:54:56.569Z,43.78
2018-05-06T11:57:23.988Z,49.30
2018-05-06T11:59:51.420Z,58.45
2018-05-06T12:02:18.870Z,73.90
2018-05-06T12:04:46.260Z,42.08
2018-05-06T12:07:13.667Z,82.97
2018-05-06T12:09:41.087Z,58.40
2018-05-06T12:12:08.504Z,70.12
2018-05-06T12:14:35.931Z,56.00
2018-05-06T12:17:03.359Z,78.35
2018-05-06T12:19:30.792Z,74.80
2018-05-06T12:21:58.273Z,92.62
2018-05-06T12:24:25.632Z,85.22
2018-05-06T12:26:53.043Z,62.55
2018-05-06T12:29:20.510Z,64.35
2018-05-06T12:31:47.924Z,83.78
2018-05-06T12:34:15.349Z,56.37
2018-05-06T12:36:42.760Z,64.78
2018-05-06T12:39:10.189Z,78.80
2018-05-06T12:41:37.603Z,89.13
2018-05-06T12:44:05.035Z,68.37
2018-05-06T12:46:32.453Z,60.83
2018-05-06T12:48:59.880Z,49.92
2018-05-06T12:51:27.296Z,82.95
2018-05-06T12:53:54.720Z,75.25
2018-05-06T12:56:22.159Z,70.53
2018-05-06T12:58:49.584Z,69.00
2018-05-06T13:01:17.004Z,95.97
2018-05-06T13:03:44.441Z,97.95
2018-05-06T13:06:11.848Z,84.40
2018-05-06T13:08:39.267Z,86.30
2018-05-06T13:11:06.700Z,63.87
2018-05-06T13:13:34.127Z,62.28
2018-05-06T13:16:01.540Z,73.95
2018-05-06T13:18:28.960Z,67.05
2018-05-06T13:20:56.381Z,59.88
2018-05-06T13:23:23.804Z,69.10
2018-05-06T13:25:51.221Z,82.28
2018-05-06T13:28:18.656Z,73.68
2018-05-06T13:30:46.076Z,67.90
2018-05-06T13:33:13.488Z,81.70
2018-05-06T13:35:40.931Z,100.47
2018-05-06T13:38:08.344Z,89.70
2018-05-06T13:40:35.765Z,60.90
2018-05-06T13:43:03.184Z,58.80
2018-05-06T13:45:30.607Z,57.90
2018-05-06T13:47:58.016Z,56.33
2018-05-06T13:50:25.440Z,68.62
2018-05-06T13:52:52.849Z,59.65
2018-05-06T13:55:20.273Z,76.37
2018-05-06T13:57:47.682Z,99.87
2018-05-06T14:00:15.108Z,112.10
2018-05-06T14:02:42.612Z,89.57
2018-05-06T14:05:09.956Z,86.82
2018-05-06T14:07:37.378Z,146.18
2018-05-06T14:10:04.804Z,89.55
2018-05-06T14:12:32.257Z,76.68
2018-05-06T14:14:59.676Z,69.45
2018-05-06T14:17:27.092Z,87.25
2018-05-06T14:19:54.518Z,79.07
2018-05-06T14:22:21.932Z,146.52
2018-05-06T14:24:49.360Z,110.40
2018-05-06T14:27:16.776Z,63.92
2018-05-06T14:29:44.200Z,76.12
2018-05-06T14:32:11.604Z,75.97
2018-05-06T14:34:39.033Z,89.25
2018-05-06T14:37:06.445Z,98.20
2018-05-06T14:39:33.892Z,66.62
2018-05-06T14:42:01.288Z,86.55
2018-05-06T14:44:28.708Z,61.60
2018-05-06T14:47:07.904Z,87.62
2018-05-06T14:49:35.338Z,101.60
2018-05-06T14:52:02.764Z,89.00
2018-05-06T14:54:30.200Z,97.62
2018-05-06T14:56:57.625Z,100.50
2018-05-06T14:59:25.036Z,86.75
2018-05-06T15:01:52.461Z,83.60
2018-05-06T15:04:19.872Z,99.60
2018-05-06T15:06:47.297Z,84.82
2018-05-06T15:09:14.713Z,78.93
2018-05-06T15:11:42.168Z,118.50
2018-05-06T15:14:09.575Z,93.28
2018-05-06T15:16:37.004Z,102.15
2018-05-06T15:19:04.417Z,75.85
2018-05-06T15:21:31.840Z,96.63
2018-05-06T15:23:59.252Z,62.75
2018-05-06T15:26:26.677Z,57.25
2018-05-06T15:28:54.097Z,73.22
2018-05-06T15:31:21.517Z,82.55
2018-05-06T15:33:48.924Z,84.80
2018-05-06T15:36:16.357Z,80.75
2018-05-06T15:38:43.765Z,69.25
2018-05-06T15:41:11.284Z,82.43
2018-05-06T15:43:38.608Z,90.47
2018-05-06T15:46:06.027Z,71.05
2018-05-06T15:48:33.440Z,53.85
2018-05-06T15:51:00.881Z,65.85
2018-05-06T15:53:28.296Z,51.80
2018-05-06T15:55:55.719Z,74.78
2018-05-06T15:58:23.132Z,56.05
2018-05-06T16:00:50.544Z,73.45
2018-05-06T16:03:29.765Z,59.60
2018-05-06T16:05:57.233Z,52.62
2018-05-06T16:08:24.643Z,64.40
2018-05-06T16:10:52.056Z,57.72
2018-05-06T16:13:19.500Z,45.40
2018-05-06T16:15:46.922Z,38.33
2018-05-06T16:18:14.335Z,56.20
2018-05-06T16:20:41.781Z,44.90
2018-05-06T16:23:09.218Z,30.45
2018-05-06T16:25:36.626Z,23.17
2018-05-06T16:28:04.044Z,32.00
2018-05-06T16:30:31.470Z,23.80
2018-05-06T16:32:58.887Z,25.35
2018-05-06T16:35:26.312Z,32.03
2018-05-06T16:37:53.752Z,27.50
2018-05-06T16:40:21.163Z,27.65
2018-05-06T16:42:48.610Z,23.27
2018-05-06T16:45:16.023Z,43.20
2018-05-06T16:47:43.435Z,48.70
2018-05-06T16:50:10.860Z,36.78
2018-05-06T16:52:38.290Z,35.97
2018-05-06T16:55:05.700Z,40.72
2018-05-06T16:57:33.118Z,29.95
2018-05-06T17:00:00.536Z,30.02
2018-05-06T17:02:27.994Z,24.63
2018-05-06T17:04:55.412Z,33.25
2018-05-06T17:07:22.834Z,27.52
2018-05-06T17:09:50.300Z,23.00
2018-05-06T17:12:17.730Z,25.98
2018-05-06T17:14:45.141Z,22.42
2018-05-06T17:17:12.557Z,26.73
2018-05-06T17:19:39.984Z,38.22
2018-05-06T17:22:07.424Z,36.10
2018-05-06T17:24:34.833Z,28.23
2018-05-06T17:27:02.256Z,22.62
2018-05-06T17:29:29.697Z,31.92
2018-05-06T17:31:57.158Z,37.78
2018-05-06T17:34:24.606Z,39.00
2018-05-06T17:36:52.011Z,40.05
2018-05-06T17:39:19.443Z,28.70
2018-05-06T17:41:46.865Z,27.00
2018-05-06T17:44:14.272Z,30.65
2018-05-06T17:46:41.688Z,22.55
2018-05-06T17:49:09.104Z,29.40
2018-05-06T17:51:36.528Z,41.90
2018-05-06T17:54:03.942Z,27.67
2018-05-06T17:56:31.381Z,35.33
2018-05-06T17:58:58.792Z,26.48
2018-05-06T18:01:26.217Z,32.97
2018-05-06T18:03:53.645Z,33.50
2018-05-06T18:06:21.061Z,33.67
2018-05-06T18:08:48.490Z,25.08
2018-05-06T18:11:15.911Z,25.42
2018-05-06T18:13:43.319Z,34.33
2018-05-06T18:16:10.773Z,32.63
2018-05-06T18:18:38.185Z,26.48
2018-05-06T18:21:05.608Z,28.83
2018-05-06T18:23:33.019Z,31.75
2018-05-06T18:26:00.441Z,34.72
2018-05-06T18:28:27.852Z,24.02
2018-05-06T18:30:55.279Z,24.40
2018-05-06T18:33:22.688Z,25.62
2018-05-06T18:35:50.116Z,20.12
2018-05-06T18:38:17.529Z,23.92
2018-05-06T18:40:44.940Z,34.03
2018-05-06T18:43:12.360Z,24.12
2018-05-06T18:45:39.781Z,20.17
2018-05-06T18:48:07.211Z,24.90
2018-05-06T18:50:34.631Z,21.12
2018-05-06T18:53:02.055Z,21.17
2018-05-06T18:55:29.465Z,33.05
2018-05-06T18:57:56.909Z,18.23
2018-05-06T19:00:24.325Z,18.70
2018-05-06T19:02:51.748Z,25.20
2018-05-06T19:05:19.162Z,21.30
2018-05-06T19:07:46.580Z,31.00
2018-05-06T19:10:13.997Z,22.27
2018-05-06T19:12:41.416Z,26.70
2018-05-06T19:15:08.828Z,34.25
2018-05-06T19:17:36.311Z,29.52
2018-05-06T19:20:03.680Z,22.45
2018-05-06T19:22:31.108Z,22.15
2018-05-06T19:24:58.524Z,20.75
2018-05-06T19:27:25.948Z,31.20
2018-05-06T19:29:53.380Z,17.37
2018-05-06T19:32:20.809Z,17.58
2018-05-06T19:34:48.229Z,22.45
2018-05-06T19:37:15.650Z,22.15
2018-05-06T19:39:43.141Z,23.45
2018-05-06T19:42:10.480Z,18.35
2018-05-06T19:44:37.901Z,20.27
2018-05-06T19:47:05.323Z,12.98
2018-05-06T19:49:32.740Z,27.87
2018-05-06T19:52:00.160Z,21.67
2018-05-06T19:54:27.596Z,23.17
2018-05-06T19:56:55.002Z,24.73
2018-05-06T19:59:22.424Z,26.02
2018-05-06T20:01:49.838Z,20.42
2018-05-06T20:04:17.252Z,30.88
2018-05-06T20:06:44.668Z,19.83
2018-05-06T20:09:12.105Z,18.58
2018-05-06T20:11:39.511Z,16.25
2018-05-06T20:14:06.932Z,15.35
2018-05-06T20:16:34.348Z,17.15
2018-05-06T20:19:01.770Z,23.48
2018-05-06T20:21:29.273Z,17.23
2018-05-06T20:23:56.602Z,13.52
2018-05-06T20:26:24.022Z,12.20
2018-05-06T20:28:51.432Z,12.32
2018-05-06T20:31:18.861Z,13.25
2018-05-06T20:33:46.269Z,16.20
2018-05-06T20:36:13.697Z,15.57
2018-05-06T20:38:41.123Z,16.05
2018-05-06T20:41:08.539Z,13.55
2018-05-06T20:43:35.957Z,13.95
2018-05-06T20:46:03.384Z,12.75
2018-05-06T20:48:30.802Z,15.23
2018-05-06T20:50:58.213Z,9.55
2018-05-06T20:53:25.623Z,10.45
2018-05-06T20:55:53.045Z,10.20
2018-05-06T20:58:20.508Z,16.65
2018-05-06T21:00:47.919Z,15.07
2018-05-06T21:03:15.332Z,15.40
2018-05-06T21:05:42.769Z,16.35
2018-05-06T21:08:10.176Z,16.40
2018-05-06T21:10:37.609Z,16.80
2018-05-06T21:13:05.029Z,14.68
2018-05-06T21:15:32.440Z,15.20
2018-05-06T21:17:59.859Z,14.82
2018-05-06T21:20:27.268Z,10.52
2018-05-06T21:22:54.695Z,12.60
2018-05-06T21:25:22.135Z,10.40
2018-05-06T21:27:49.553Z,9.85
2018-05-06T21:30:16.972Z,12.20
2018-05-06T21:32:44.385Z,9.65
2018-05-06T21:35:11.799Z,13.25
2018-05-06T21:37:39.296Z,8.55
2018-05-06T21:40:06.663Z,9.90
2018-05-06T21:42:34.076Z,13.18
2018-05-06T21:45:01.519Z,8.63
2018-05-06T21:47:28.891Z,5.93
2018-05-06T21:49:56.328Z,7.85
2018-05-06T21:52:23.719Z,7.78
2018-05-06T21:54:51.133Z,6.05
2018-05-06T21:57:18.547Z,8.88
2018-05-06T21:59:45.943Z,9.25
2018-05-06T22:02:13.376Z,8.90
2018-05-06T22:04:40.791Z,10.70
2018-05-06T22:07:08.200Z,6.05
2018-05-06T22:09:35.615Z,6.65
2018-05-06T22:12:03.015Z,8.43
2018-05-06T22:14:30.432Z,7.95
2018-05-06T22:16:57.843Z,10.43
2018-05-06T22:19:25.288Z,6.32
2018-05-06T22:21:52.673Z,4.78
2018-05-06T22:24:20.089Z,6.85
2018-05-06T22:26:47.495Z,6.07
2018-05-06T22:29:14.915Z,8.52
2018-05-06T22:31:42.322Z,6.85
2018-05-06T22:34:09.762Z,5.80
2018-05-06T22:36:37.136Z,6.75
2018-05-06T22:39:04.556Z,7.25
2018-05-06T22:41:32.027Z,6.05
2018-05-06T22:43:59.425Z,6.15
2018-05-06T22:46:26.826Z,5.50
2018-05-06T22:48:54.236Z,4.90
2018-05-06T22:51:21.660Z,7.45
2018-05-06T22:53:49.064Z,5.55
2018-05-06T22:56:16.477Z,5.12
2018-05-06T22:58:43.901Z,5.03
2018-05-06T23:01:11.296Z,6.30
2018-05-06T23:03:38.716Z,6.60
2018-05-06T23:06:06.120Z,9.80
2018-05-06T23:08:33.544Z,7.82
2018-05-06T23:11:00.947Z,6.43
2018-05-06T23:13:28.358Z,6.43
2018-05-06T23:15:55.777Z,6.10
2018-05-06T23:18:23.187Z,5.12
2018-05-06T23:20:50.626Z,9.43
2018-05-06T23:23:18.004Z,6.65
2018-05-06T23:25:45.428Z,5.85
2018-05-06T23:28:12.836Z,10.65
2018-05-06T23:30:40.267Z,5.30
2018-05-06T23:33:07.675Z,5.60
2018-05-06T23:35:35.127Z,6.78
2018-05-06T23:38:02.504Z,11.98
2018-05-06T23:40:29.912Z,5.87
2018-05-06T23:42:57.321Z,6.85
2018-05-06T23:45:24.739Z,7.22
2018-05-06T23:47:52.148Z,7.60
2018-05-06T23:50:19.564Z,7.93
2018-05-06T23:52:46.964Z,4.65
2018-05-06T23:55:14.438Z,4.55
2018-05-06T23:57:41.817Z,6.65
